Time;durP1;ratioP1;P1;durP2;ratioP2;P2;SDS_P1;SDS_P2;PMS_P1;PMS_P2;Temp;Humidity;BMP_temperature;BMP_pressure;BME280_temperature;BME280_humidity;BME280_pressure;Samples;Min_cycle;Max_cycle;Signal;HPM_P1;HPM_P2
2023/03/18 00:00:11;;;;;;;28.67;9.87;;;10.00;99.90;;;;;;5033078;28;20035;-62
2023/03/18 00:02:38;;;;;;;34.78;12.25;;;9.90;99.90;;;;;;5027592;28;20788;-62
2023/03/18 00:05:06;;;;;;;21.58;7.90;;;9.90;99.90;;;;;;5034754;28;20035;-62
2023/03/18 00:07:32;;;;;;;17.27;7.70;;;9.90;99.90;;;;;;5030108;28;20026;-61
2023/03/18 00:09:58;;;;;;;17.38;8.15;;;9.90;99.90;;;;;;5034861;28;20071;-62
2023/03/18 00:12:24;;;;;;;15.20;8.37;;;9.80;99.90;;;;;;5031514;28;20060;-62
2023/03/18 00:14:50;;;;;;;13.50;7.82;;;9.80;99.90;;;;;;5034784;28;20317;-61
2023/03/18 00:17:16;;;;;;;18.37;8.90;;;9.80;99.90;;;;;;5033441;28;20082;-62
2023/03/18 00:19:42;;;;;;;18.55;8.50;;;9.80;99.90;;;;;;5029435;28;20017;-62
2023/03/18 00:22:09;;;;;;;17.37;8.20;;;9.80;99.90;;;;;;5033106;28;20371;-62
2023/03/18 00:24:35;;;;;;;16.63;8.27;;;9.70;99.90;;;;;;5033532;28;20038;-61
2023/03/18 00:27:02;;;;;;;15.57;7.22;;;9.70;99.90;;;;;;5026659;28;20459;-62
2023/03/18 00:29:29;;;;;;;15.52;8.15;;;9.70;99.90;;;;;;5021610;28;20037;-62
2023/03/18 00:31:58;;;;;;;12.65;7.75;;;9.60;99.90;;;;;;5023163;28;20025;-62
2023/03/18 00:34:25;;;;;;;19.38;8.93;;;9.60;99.90;;;;;;5021688;28;20018;-62
2023/03/18 00:36:55;;;;;;;17.75;9.15;;;9.60;99.90;;;;;;5025117;28;20074;-61
2023/03/18 00:39:25;;;;;;;16.98;9.40;;;9.60;99.90;;;;;;5022038;28;20038;-62
2023/03/18 00:41:55;;;;;;;18.23;9.07;;;9.60;99.90;;;;;;5023318;28;20032;-62
2023/03/18 00:44:21;;;;;;;18.63;8.95;;;9.60;99.90;;;;;;5026527;28;20037;-63
2023/03/18 00:46:47;;;;;;;15.35;9.32;;;9.60;99.90;;;;;;5023234;28;20018;-62
2023/03/18 00:49:14;;;;;;;18.97;9.70;;;9.60;99.90;;;;;;5022136;28;20377;-62
2023/03/18 00:51:41;;;;;;;15.88;9.05;;;9.60;99.90;;;;;;5020187;28;20040;-61
2023/03/18 00:54:09;;;;;;;23.23;10.63;;;9.60;99.90;;;;;;5021856;28;20128;-62
2023/03/18 00:56:38;;;;;;;18.67;10.68;;;9.60;99.90;;;;;;5024687;28;20404;-61
2023/03/18 00:59:06;;;;;;;23.92;10.90;;;9.60;99.90;;;;;;5021163;28;20030;-62
2023/03/18 01:01:32;;;;;;;20.67;9.77;;;9.50;99.90;;;;;;5023130;28;20383;-62
2023/03/18 01:03:59;;;;;;;19.98;10.50;;;9.50;99.90;;;;;;5023522;28;20032;-62
2023/03/18 01:06:27;;;;;;;18.52;10.68;;;9.40;99.90;;;;;;5026616;28;20160;-62
2023/03/18 01:08:54;;;;;;;16.13;9.45;;;9.50;99.90;;;;;;5024361;28;20104;-61
2023/03/18 01:11:21;;;;;;;16.00;10.25;;;9.40;99.90;;;;;;5022089;28;20034;-62
2023/03/18 01:13:48;;;;;;;22.95;12.23;;;9.40;99.90;;;;;;5023017;28;20030;-62
2023/03/18 01:16:14;;;;;;;20.55;10.80;;;9.30;99.90;;;;;;5024961;28;20688;-62
2023/03/18 01:18:41;;;;;;;23.73;11.20;;;9.30;99.90;;;;;;5022784;28;20412;-62
2023/03/18 01:21:08;;;;;;;23.33;12.23;;;9.30;99.90;;;;;;5021680;28;20044;-62
2023/03/18 01:23:35;;;;;;;23.02;11.60;;;9.30;99.90;;;;;;5026276;28;20025;-62
2023/03/18 01:26:02;;;;;;;;;;;9.30;99.90;;;;;;5034111;28;20056;-62
2023/03/18 01:28:28;;;;;;;18.17;10.88;;;9.40;99.90;;;;;;5032218;28;19917;-61
2023/03/18 01:30:54;;;;;;;23.83;13.57;;;9.40;99.90;;;;;;5032304;28;20079;-62
2023/03/18 01:33:21;;;;;;;22.05;12.10;;;9.40;99.90;;;;;;5032935;28;20266;-61
2023/03/18 01:35:54;;;;;;;22.40;11.88;;;9.40;99.90;;;;;;5023666;28;20412;-62
2023/03/18 01:38:22;;;;;;;23.77;12.45;;;9.40;99.90;;;;;;5025611;28;20416;-62
2023/03/18 01:40:49;;;;;;;22.25;12.27;;;9.50;99.90;;;;;;5031129;28;20025;-62
2023/03/18 01:43:25;;;;;;;24.45;12.82;;;9.50;99.90;;;;;;5027822;28;20026;-61
2023/03/18 01:45:55;;;;;;;27.45;13.50;;;9.60;99.90;;;;;;5031128;28;20106;-62
2023/03/18 01:48:24;;;;;;;23.98;13.00;;;9.60;99.90;;;;;;5032963;28;20109;-62
2023/03/18 01:50:58;;;;;;;25.95;12.90;;;9.60;99.90;;;;;;5026806;28;20109;-62
2023/03/18 01:53:28;;;;;;;23.50;12.60;;;9.70;99.90;;;;;;5032564;28;20036;-61
2023/03/18 01:55:56;;;;;;;25.30;12.95;;;9.60;99.90;;;;;;5031814;28;20034;-62
2023/03/18 01:58:31;;;;;;;25.42;12.40;;;9.60;99.90;;;;;;5036559;28;20113;-62
2023/03/18 02:01:02;;;;;;;21.02;12.82;;;9.60;99.90;;;;;;5029906;28;20021;-62
2023/03/18 02:03:28;;;;;;;25.23;13.20;;;9.60;99.90;;;;;;5031944;28;20093;-61
2023/03/18 02:05:54;;;;;;;24.00;13.52;;;9.60;99.90;;;;;;5036454;28;20029;-62
2023/03/18 02:08:20;;;;;;;28.40;14.03;;;9.60;99.90;;;;;;5035431;28;20045;-61
2023/03/18 02:10:47;;;;;;;22.17;13.47;;;9.60;99.90;;;;;;5031423;28;20273;-61
2023/03/18 02:13:14;;;;;;;25.63;12.98;;;9.60;99.90;;;;;;5036563;28;20051;-61
2023/03/18 02:15:55;;;;;;;24.92;13.05;;;9.60;99.90;;;;;;5035467;28;20044;-62
2023/03/18 02:18:27;;;;;;;22.85;12.40;;;9.50;99.90;;;;;;5037681;28;20171;-61
2023/03/18 02:21:02;;;;;;;24.38;12.90;;;9.50;99.90;;;;;;5034542;28;20030;-62
2023/03/18 02:23:50;;;;;;;22.37;12.77;;;9.60;99.90;;;;;;5036864;28;20315;-62
2023/03/18 02:26:42;;;;;;;25.45;13.02;;;9.50;99.90;;;;;;5037178;28;20454;-61
2023/03/18 02:29:12;;;;;;;26.17;13.18;;;9.50;99.90;;;;;;5034229;28;20316;-62
2023/03/18 02:31:38;;;;;;;29.75;12.82;;;9.50;99.90;;;;;;5037404;28;20405;-61
2023/03/18 02:34:06;;;;;;;23.23;12.95;;;9.50;99.90;;;;;;5035310;28;20025;-61
2023/03/18 02:36:34;;;;;;;25.17;13.18;;;9.50;99.90;;;;;;5036980;28;20032;-62
2023/03/18 02:39:01;;;;;;;24.60;12.50;;;9.50;99.90;;;;;;5034117;28;20056;-62
2023/03/18 02:41:31;;;;;;;26.35;13.90;;;9.50;99.90;;;;;;5036993;28;20406;-61
2023/03/18 02:43:57;;;;;;;22.73;12.68;;;9.60;99.90;;;;;;5030926;28;20156;-61
2023/03/18 02:46:40;;;;;;;22.87;13.70;;;9.60;99.90;;;;;;5034172;28;20124;-61
2023/03/18 02:49:07;;;;;;;21.15;11.98;;;9.60;99.90;;;;;;5036350;28;20045;-61
2023/03/18 02:51:34;;;;;;;;;;;9.60;99.90;;;;;;5036505;28;20419;-61
2023/03/18 02:54:09;;;;;;;18.80;11.18;;;9.60;99.90;;;;;;5035284;28;19959;-61
2023/03/18 02:56:36;;;;;;;25.13;12.35;;;9.60;99.90;;;;;;5035776;28;20033;-62
2023/03/18 02:59:04;;;;;;;20.30;12.85;;;9.60;99.90;;;;;;5036575;28;20039;-61
2023/03/18 03:01:31;;;;;;;23.35;13.68;;;9.70;99.90;;;;;;5035728;28;20026;-61
2023/03/18 03:03:57;;;;;;;22.00;12.38;;;9.70;99.90;;;;;;5034800;28;20324;-61
2023/03/18 03:06:24;;;;;;;24.13;14.40;;;9.80;99.90;;;;;;5032536;28;20029;-62
2023/03/18 03:08:50;;;;;;;;;;;9.80;99.90;;;;;;5025046;28;20034;-74
2023/03/18 03:11:17;;;;;;;20.77;12.07;;;9.80;99.90;;;;;;5033884;28;20287;-62
2023/03/18 03:13:46;;;;;;;;;;;9.80;99.90;;;;;;5036645;28;20041;-62
2023/03/18 03:16:14;;;;;;;21.17;12.43;;;9.90;99.90;;;;;;5029510;28;20192;-62
2023/03/18 03:18:40;;;;;;;22.55;12.15;;;9.90;99.90;;;;;;5034208;28;20078;-62
2023/03/18 03:21:07;;;;;;;23.60;12.98;;;9.80;99.90;;;;;;5036567;28;20110;-62
2023/03/18 03:23:35;;;;;;;23.10;12.90;;;9.80;99.90;;;;;;5034682;28;20040;-61
2023/03/18 03:26:03;;;;;;;26.00;12.50;;;9.80;99.90;;;;;;5031570;28;20029;-61
2023/03/18 03:28:29;;;;;;;30.13;12.90;;;9.80;99.90;;;;;;5033182;28;20041;-62
2023/03/18 03:30:55;;;;;;;24.88;12.70;;;9.80;99.90;;;;;;5036380;28;20061;-62
2023/03/18 03:33:22;;;;;;;24.48;13.48;;;9.80;99.90;;;;;;5035400;28;20043;-62
2023/03/18 03:35:48;;;;;;;21.98;12.55;;;9.80;99.90;;;;;;5034648;28;20482;-62
2023/03/18 03:38:14;;;;;;;26.13;12.90;;;9.70;99.90;;;;;;5035394;28;20038;-62
2023/03/18 03:40:40;;;;;;;25.23;13.40;;;9.70;99.90;;;;;;5034682;28;20312;-62
2023/03/18 03:43:06;;;;;;;25.33;13.33;;;9.70;99.90;;;;;;5029347;28;20087;-62
2023/03/18 03:45:33;;;;;;;23.63;14.18;;;9.80;99.90;;;;;;5033589;28;20026;-61
2023/03/18 03:47:59;;;;;;;24.27;14.20;;;9.90;99.90;;;;;;5035708;28;20056;-62
2023/03/18 03:50:25;;;;;;;25.30;14.32;;;9.90;99.90;;;;;;5034220;28;20363;-73
2023/03/18 03:52:52;;;;;;;27.17;13.95;;;9.90;99.90;;;;;;5035171;28;20537;-61
2023/03/18 03:55:21;;;;;;;26.42;13.80;;;9.90;99.90;;;;;;5034459;28;20044;-61
2023/03/18 03:57:47;;;;;;;25.08;14.50;;;9.90;99.90;;;;;;5034846;28;20090;-61
2023/03/18 04:00:17;;;;;;;24.30;14.20;;;9.80;99.90;;;;;;5034387;28;20056;-62
2023/03/18 04:02:44;;;;;;;25.33;13.93;;;9.80;99.90;;;;;;5034919;28;20033;-62
2023/03/18 04:05:11;;;;;;;29.58;13.68;;;9.70;99.90;;;;;;5034758;28;20029;-61
2023/03/18 04:07:38;;;;;;;24.08;14.02;;;9.80;99.90;;;;;;5035274;28;20033;-62
2023/03/18 04:10:05;;;;;;;25.50;14.52;;;9.80;99.90;;;;;;5034661;28;20416;-62
2023/03/18 04:12:31;;;;;;;28.95;14.25;;;9.80;99.90;;;;;;5035368;28;20029;-61
2023/03/18 04:14:57;;;;;;;24.90;14.00;;;9.70;99.90;;;;;;5032155;28;20033;-73
2023/03/18 04:17:23;;;;;;;28.13;15.13;;;9.70;99.90;;;;;;5034012;28;20018;-62
2023/03/18 04:19:49;;;;;;;26.00;15.20;;;9.70;99.90;;;;;;5034387;28;20079;-61
2023/03/18 04:22:15;;;;;;;30.27;15.63;;;9.80;99.90;;;;;;5035493;28;20026;-62
2023/03/18 04:24:41;;;;;;;29.35;14.73;;;9.70;99.90;;;;;;5034228;28;20152;-63
2023/03/18 04:27:07;;;;;;;28.45;15.30;;;9.80;99.90;;;;;;5029313;28;20022;-61
2023/03/18 04:29:33;;;;;;;29.60;16.57;;;9.80;99.90;;;;;;5033831;28;20048;-61
2023/03/18 04:31:59;;;;;;;27.43;15.90;;;9.80;99.90;;;;;;5034388;28;20436;-62
2023/03/18 04:34:24;;;;;;;33.73;16.57;;;9.80;99.90;;;;;;5034227;28;20163;-62
2023/03/18 04:36:50;;;;;;;28.60;16.60;;;9.70;99.90;;;;;;5027987;28;20076;-61
2023/03/18 04:39:16;;;;;;;28.77;15.97;;;9.70;99.90;;;;;;5033809;28;20021;-61
2023/03/18 04:41:42;;;;;;;24.95;15.65;;;9.70;99.90;;;;;;5034987;28;20021;-62
2023/03/18 04:44:08;;;;;;;31.73;17.43;;;9.70;99.90;;;;;;5030191;28;20034;-61
2023/03/18 04:46:34;;;;;;;32.47;17.43;;;9.70;99.90;;;;;;5033571;28;20052;-62
2023/03/18 04:49:00;;;;;;;34.33;16.00;;;9.70;99.90;;;;;;5033685;28;20455;-61
2023/03/18 04:51:26;;;;;;;32.93;17.43;;;9.70;99.90;;;;;;5029012;28;20382;-62
2023/03/18 04:53:52;;;;;;;33.00;17.50;;;9.80;99.90;;;;;;5034386;28;20362;-75
2023/03/18 04:56:18;;;;;;;32.58;17.33;;;9.80;99.90;;;;;;5033857;28;20543;-75
2023/03/18 04:58:45;;;;;;;33.37;16.93;;;9.80;99.90;;;;;;5030956;28;20090;-74
2023/03/18 05:01:11;;;;;;;33.08;17.67;;;9.80;99.90;;;;;;5033772;28;20033;-66
2023/03/18 05:03:41;;;;;;;30.42;16.88;;;9.80;99.90;;;;;;5034561;28;20025;-74
2023/03/18 05:06:08;;;;;;;28.25;15.93;;;9.80;99.90;;;;;;5033445;28;20026;-74
2023/03/18 05:08:34;;;;;;;34.92;16.38;;;9.80;99.90;;;;;;5025951;28;20029;-74
2023/03/18 05:10:59;;;;;;;31.87;16.73;;;9.80;99.90;;;;;;5034081;28;20047;-74
2023/03/18 05:13:25;;;;;;;26.63;15.63;;;9.80;99.90;;;;;;5032503;28;20029;-74
2023/03/18 05:15:51;;;;;;;32.20;17.43;;;9.80;99.90;;;;;;5027872;28;20171;-70
2023/03/18 05:18:17;;;;;;;27.23;16.07;;;9.80;99.90;;;;;;5031454;28;20052;-74
2023/03/18 05:20:43;;;;;;;31.37;16.23;;;9.80;99.90;;;;;;5034006;28;20032;-74
2023/03/18 05:23:09;;;;;;;30.77;16.00;;;9.80;99.90;;;;;;5033318;28;20026;-75
2023/03/18 05:25:35;;;;;;;27.63;15.50;;;9.80;99.90;;;;;;5026338;28;20033;-74
2023/03/18 05:28:01;;;;;;;38.90;17.77;;;9.80;99.90;;;;;;5032288;28;20128;-71
2023/03/18 05:30:27;;;;;;;29.58;17.15;;;9.80;99.90;;;;;;5031840;28;20029;-75
2023/03/18 05:32:53;;;;;;;35.47;17.00;;;9.80;99.90;;;;;;5033123;28;20379;-74
2023/03/18 05:35:19;;;;;;;29.52;16.77;;;9.80;99.90;;;;;;5031922;28;20083;-75
2023/03/18 05:37:45;;;;;;;35.27;17.90;;;9.80;99.90;;;;;;5031756;28;20033;-76
2023/03/18 05:40:11;;;;;;;31.45;17.83;;;9.80;99.90;;;;;;5031495;28;20084;-74
2023/03/18 05:42:39;;;;;;;35.05;17.48;;;9.80;99.90;;;;;;5030742;28;20018;-76
2023/03/18 05:45:06;;;;;;;30.77;17.60;;;9.80;99.90;;;;;;5025290;28;20108;-74
2023/03/18 05:47:32;;;;;;;;;;;9.80;99.90;;;;;;5029705;28;20017;-73
2023/03/18 05:49:58;;;;;;;29.00;16.60;;;9.80;99.90;;;;;;5029861;28;19910;-75
2023/03/18 05:52:24;;;;;;;28.20;16.85;;;9.80;99.90;;;;;;5031480;28;20270;-74
2023/03/18 05:54:50;;;;;;;30.35;16.20;;;9.80;99.90;;;;;;5022316;28;20348;-74
2023/03/18 05:57:16;;;;;;;31.08;17.50;;;9.80;99.90;;;;;;5026340;28;20417;-76
2023/03/18 05:59:42;;;;;;;34.33;16.10;;;9.80;99.90;;;;;;5024733;28;20067;-74
2023/03/18 06:02:08;;;;;;;28.23;17.03;;;9.80;99.90;;;;;;5018584;28;20037;-74
2023/03/18 06:04:34;;;;;;;28.08;16.90;;;9.80;99.90;;;;;;5026039;28;20281;-74
2023/03/18 06:07:01;;;;;;;31.33;16.13;;;9.80;99.90;;;;;;5022605;28;20413;-75
2023/03/18 06:09:27;;;;;;;26.30;15.85;;;9.80;99.90;;;;;;5025643;28;20109;-74
2023/03/18 06:11:53;;;;;;;29.03;15.67;;;9.80;99.90;;;;;;5030087;28;20130;-74
2023/03/18 06:14:20;;;;;;;24.83;15.05;;;9.80;99.90;;;;;;5028761;28;20030;-74
2023/03/18 06:16:45;;;;;;;32.55;16.38;;;9.80;99.90;;;;;;5030156;28;20033;-74
2023/03/18 06:19:11;;;;;;;28.90;15.53;;;9.80;99.90;;;;;;5026268;28;20440;-63
2023/03/18 06:21:39;;;;;;;25.55;14.30;;;9.80;99.90;;;;;;5022785;28;20309;-74
2023/03/18 06:24:05;;;;;;;24.52;14.23;;;9.80;99.90;;;;;;5026390;28;20036;-74
2023/03/18 06:26:31;;;;;;;27.33;14.77;;;9.80;99.90;;;;;;5029983;28;20040;-66
2023/03/18 06:28:57;;;;;;;29.43;14.77;;;9.70;99.90;;;;;;5022402;28;20452;-74
2023/03/18 06:31:23;;;;;;;25.63;14.13;;;9.70;99.90;;;;;;5028708;28;20025;-74
2023/03/18 06:33:49;;;;;;;20.40;12.53;;;9.70;99.90;;;;;;5028711;28;20040;-74
2023/03/18 06:36:16;;;;;;;26.87;13.37;;;9.70;99.90;;;;;;5033373;28;20108;-73
2023/03/18 06:38:43;;;;;;;25.98;13.45;;;9.70;99.90;;;;;;5034252;28;20033;-73
2023/03/18 06:41:10;;;;;;;25.10;13.70;;;9.60;99.90;;;;;;5036103;28;20436;-74
2023/03/18 06:43:37;;;;;;;25.13;13.13;;;9.60;99.90;;;;;;5035249;28;20432;-74
2023/03/18 06:46:03;;;;;;;20.75;12.77;;;9.70;99.90;;;;;;5032730;28;20040;-73
2023/03/18 06:48:29;;;;;;;24.48;12.75;;;9.70;99.90;;;;;;5033748;28;20132;-74
2023/03/18 06:50:55;;;;;;;20.73;12.17;;;9.70;99.90;;;;;;5036366;28;20148;-74
2023/03/18 06:53:21;;;;;;;22.67;13.13;;;9.70;99.90;;;;;;5034973;28;20037;-67
2023/03/18 06:55:48;;;;;;;23.87;12.27;;;9.70;99.90;;;;;;5035466;28;20055;-74
2023/03/18 06:58:14;;;;;;;21.90;12.88;;;9.70;99.90;;;;;;5034730;28;20021;-73
2023/03/18 07:00:41;;;;;;;24.42;13.18;;;9.80;99.90;;;;;;5034508;28;20463;-74
2023/03/18 07:03:07;;;;;;;26.27;13.35;;;10.00;99.90;;;;;;5036034;28;20025;-74
2023/03/18 07:05:32;;;;;;;28.33;13.37;;;10.20;99.90;;;;;;5034748;28;20375;-74
2023/03/18 07:07:58;;;;;;;22.13;13.33;;;10.60;99.90;;;;;;5034720;28;20263;-74
2023/03/18 07:10:26;;;;;;;23.43;14.70;;;10.80;99.90;;;;;;5035844;28;20068;-74
2023/03/18 07:12:53;;;;;;;25.05;14.50;;;11.40;99.90;;;;;;5029698;28;20030;-74
2023/03/18 07:15:20;;;;;;;23.52;14.00;;;12.30;99.90;;;;;;5034046;28;20048;-74
2023/03/18 07:17:47;;;;;;;32.30;12.98;;;13.30;99.90;;;;;;5036089;28;20045;-62
2023/03/18 07:20:14;;;;;;;21.70;11.55;;;14.40;99.90;;;;;;5034405;28;20053;-74
2023/03/18 07:22:41;;;;;;;24.20;11.15;;;15.30;99.90;;;;;;5035387;28;20025;-75
2023/03/18 07:25:08;;;;;;;25.85;11.85;;;16.00;99.90;;;;;;5032923;28;20092;-75
2023/03/18 07:27:34;;;;;;;27.05;11.23;;;16.60;99.90;;;;;;5028120;28;20046;-75
2023/03/18 07:30:02;;;;;;;35.40;11.05;;;17.10;99.90;;;;;;5035295;28;20096;-64
2023/03/18 07:32:31;;;;;;;25.67;9.77;;;17.40;99.90;;;;;;5033362;28;20371;-75
2023/03/18 07:34:58;;;;;;;18.92;10.02;;;17.60;99.90;;;;;;5030097;28;20036;-75
2023/03/18 07:37:24;;;;;;;17.25;9.05;;;18.00;99.90;;;;;;5032044;28;20053;-74
2023/03/18 07:39:51;;;;;;;31.10;9.80;;;18.30;99.90;;;;;;5029479;28;20377;-76
2023/03/18 07:42:18;;;;;;;16.45;9.38;;;18.20;99.90;;;;;;5030997;28;20045;-75
2023/03/18 07:44:43;;;;;;;15.82;9.65;;;18.30;99.90;;;;;;5027109;28;20029;-76
2023/03/18 07:47:10;;;;;;;20.33;10.10;;;18.10;99.90;;;;;;5030910;28;20048;-75
2023/03/18 07:49:35;;;;;;;44.05;10.32;;;17.80;99.90;;;;;;5028451;28;20112;-75
2023/03/18 07:52:02;;;;;;;20.50;10.23;;;17.50;99.90;;;;;;5031081;28;20109;-64
2023/03/18 07:54:28;;;;;;;17.52;9.68;;;17.20;99.90;;;;;;5031498;28;20480;-63
2023/03/18 07:56:54;;;;;;;15.83;9.73;;;16.80;99.90;;;;;;5033055;28;20120;-65
2023/03/18 07:59:20;;;;;;;17.43;9.83;;;16.60;99.90;;;;;;5025802;28;20041;-63
2023/03/18 08:01:47;;;;;;;18.77;10.13;;;16.10;99.90;;;;;;5029984;28;20588;-63
2023/03/18 08:04:13;;;;;;;17.80;10.30;;;15.80;99.90;;;;;;5029570;28;20028;-62
2023/03/18 08:06:39;;;;;;;20.88;11.10;;;15.50;99.90;;;;;;5028099;28;20408;-62
2023/03/18 08:09:05;;;;;;;18.83;10.60;;;15.30;99.90;;;;;;5030373;28;20034;-63
2023/03/18 08:11:32;;;;;;;19.67;10.27;;;15.40;99.90;;;;;;5030962;28;20033;-63
2023/03/18 08:13:58;;;;;;;;;;;16.20;99.90;;;;;;5023326;28;20025;-62
2023/03/18 08:16:24;;;;;;;19.25;9.70;;;17.10;99.90;;;;;;5030863;28;19909;-63
2023/03/18 08:18:50;;;;;;;16.60;10.48;;;18.30;99.90;;;;;;5030886;28;20056;-63
2023/03/18 08:21:16;;;;;;;16.23;9.98;;;19.00;99.90;;;;;;5035169;28;20075;-63
2023/03/18 08:23:42;;;;;;;17.65;9.52;;;19.60;99.90;;;;;;5028745;28;20159;-64
2023/03/18 08:26:08;;;;;;;26.17;10.60;;;20.00;99.90;;;;;;5033635;28;20117;-63
2023/03/18 08:28:34;;;;;;;23.50;11.93;;;20.40;99.90;;;;;;5028751;28;20286;-63
2023/03/18 08:31:00;;;;;;;19.13;10.47;;;20.00;99.90;;;;;;5031619;28;20067;-63
2023/03/18 08:33:26;;;;;;;20.70;10.80;;;19.80;99.90;;;;;;5031679;28;20056;-63
2023/03/18 08:35:54;;;;;;;20.10;11.52;;;19.80;99.90;;;;;;5033580;28;20040;-77
2023/03/18 08:38:22;;;;;;;18.73;10.82;;;20.00;99.90;;;;;;4968104;28;20392;-63
2023/03/18 08:40:48;;;;;;;17.10;10.27;;;20.00;99.90;;;;;;4936047;28;20025;-63
2023/03/18 08:43:14;;;;;;;18.53;10.50;;;20.50;99.90;;;;;;4931604;28;21400;-63
2023/03/18 08:45:40;;;;;;;17.83;10.25;;;20.70;99.90;;;;;;4929861;28;23288;-63
2023/03/18 08:48:06;;;;;;;21.77;9.65;;;21.10;99.90;;;;;;4930232;28;20081;-64
2023/03/18 08:50:34;;;;;;;14.82;9.50;;;21.10;99.90;;;;;;4929514;28;20151;-63
2023/03/18 08:53:00;;;;;;;15.93;9.32;;;21.20;99.90;;;;;;4930911;28;20964;-64
2023/03/18 08:55:33;;;;;;;16.08;8.85;;;21.60;99.90;;;;;;4932302;28;20112;-64
2023/03/18 08:57:59;;;;;;;16.05;8.68;;;21.70;99.90;;;;;;4930201;28;20347;-63
2023/03/18 09:00:25;;;;;;;15.32;9.02;;;22.10;99.90;;;;;;4930809;28;20036;-64
2023/03/18 09:02:51;;;;;;;;;;;22.00;99.90;;;;;;4932652;28;20029;-64
2023/03/18 09:05:18;;;;;;;17.83;9.02;;;22.50;99.90;;;;;;4930810;28;20006;-64
2023/03/18 09:07:52;;;;;;;16.33;8.55;;;22.80;99.90;;;;;;4930928;28;20116;-63
2023/03/18 09:10:18;;;;;;;15.27;8.77;;;22.60;99.90;;;;;;4931550;28;20537;-64
2023/03/18 09:12:45;;;;;;;13.57;8.32;;;22.90;99.90;;;;;;4930899;28;20037;-63
2023/03/18 09:15:19;;;;;;;16.58;8.05;;;22.70;99.90;;;;;;4930871;28;20030;-64
2023/03/18 09:17:45;;;;;;;20.88;8.15;;;22.70;99.90;;;;;;4929764;28;20503;-64
2023/03/18 09:20:14;;;;;;;13.38;7.43;;;22.60;99.90;;;;;;4931702;28;20969;-64
2023/03/18 09:22:42;;;;;;;14.02;7.47;;;22.60;99.90;;;;;;4931678;28;21406;-64
2023/03/18 09:25:09;;;;;;;15.27;7.57;;;22.80;99.90;;;;;;4930412;28;20127;-64
2023/03/18 09:27:35;;;;;;;13.32;7.55;;;22.50;99.90;;;;;;4931950;28;20123;-64
2023/03/18 09:30:02;;;;;;;10.00;6.70;;;22.30;99.90;;;;;;4933000;28;20013;-64
2023/03/18 09:32:28;;;;;;;11.80;6.82;;;22.20;99.90;;;;;;4930325;28;20075;-64
2023/03/18 09:34:54;;;;;;;13.90;7.40;;;22.10;99.90;;;;;;4927425;28;20807;-63
2023/03/18 09:37:21;;;;;;;15.43;7.78;;;21.20;99.90;;;;;;4929040;28;20429;-64
2023/03/18 09:39:47;;;;;;;11.95;6.75;;;20.50;99.90;;;;;;4930925;28;20041;-64
2023/03/18 09:42:13;;;;;;;17.00;8.65;;;20.00;99.90;;;;;;4930020;28;20036;-64
2023/03/18 09:44:39;;;;;;;14.73;7.10;;;20.10;99.90;;;;;;4960999;28;20025;-64
2023/03/18 09:47:20;;;;;;;13.20;8.07;;;19.90;99.90;;;;;;5019596;28;20025;-64
2023/03/18 09:49:58;;;;;;;14.52;8.15;;;20.20;99.90;;;;;;5030429;28;20030;-64
2023/03/18 09:52:41;;;;;;;16.02;8.60;;;20.10;99.90;;;;;;5020898;28;20367;-64
2023/03/18 09:55:35;;;;;;;15.38;9.40;;;19.80;99.90;;;;;;5014456;28;20030;-78
2023/03/18 09:58:07;;;;;;;17.63;9.70;;;19.50;99.90;;;;;;5017577;28;20034;-65
2023/03/18 10:00:36;;;;;;;13.40;8.90;;;19.20;99.90;;;;;;5019185;28;20030;-65
2023/03/18 10:03:13;;;;;;;14.95;9.45;;;19.20;99.90;;;;;;5018635;28;20022;-65
2023/03/18 10:05:42;;;;;;;16.50;9.02;;;18.90;99.90;;;;;;5015622;28;20421;-64
2023/03/18 10:08:36;;;;;;;16.02;9.07;;;18.80;99.90;;;;;;5016589;28;20052;-64
2023/03/18 10:11:07;;;;;;;19.27;9.23;;;18.90;99.90;;;;;;5025618;28;20045;-65
2023/03/18 10:13:45;;;;;;;15.15;9.38;;;19.10;99.90;;;;;;4979561;28;20047;-64
2023/03/18 10:16:19;;;;;;;19.92;9.88;;;19.40;99.90;;;;;;4939365;28;20025;-64
2023/03/18 10:18:46;;;;;;;15.98;10.30;;;19.40;99.90;;;;;;4940040;28;20492;-64
2023/03/18 10:21:33;;;;;;;13.60;9.40;;;19.40;99.90;;;;;;4948271;28;20103;-65
2023/03/18 10:24:25;;;;;;;16.40;9.65;;;19.40;99.90;;;;;;5026732;28;20439;-76
2023/03/18 10:27:28;;;;;;;15.27;9.65;;;19.30;99.90;;;;;;5029120;28;20044;-79
2023/03/18 10:29:54;;;;;;;17.85;9.88;;;19.20;99.90;;;;;;5030441;28;20128;-64
2023/03/18 10:32:55;;;;;;;14.57;9.80;;;19.30;99.90;;;;;;5036018;28;20317;-63
2023/03/18 10:35:37;;;;;;;19.98;9.88;;;19.30;99.90;;;;;;5027782;28;20035;-63
2023/03/18 10:38:25;;;;;;;16.33;10.00;;;18.80;99.90;;;;;;5029169;28;20033;-63
2023/03/18 10:40:52;;;;;;;15.90;9.68;;;18.80;99.90;;;;;;5028670;28;20083;-64
2023/03/18 10:43:23;;;;;;;14.27;9.80;;;19.00;99.90;;;;;;5026097;28;20459;-64
2023/03/18 10:46:00;;;;;;;13.38;9.63;;;19.00;99.90;;;;;;5033271;28;20045;-63
2023/03/18 10:48:34;;;;;;;14.82;8.98;;;18.70;99.90;;;;;;5028825;28;20041;-64
2023/03/18 10:51:26;;;;;;;18.65;9.32;;;18.40;99.90;;;;;;5030356;28;20424;-65
2023/03/18 10:54:06;;;;;;;16.35;8.93;;;18.30;99.90;;;;;;5026973;28;20038;-64
2023/03/18 10:56:34;;;;;;;17.65;8.68;;;17.80;99.90;;;;;;5032253;28;20049;-64
2023/03/18 10:59:00;;;;;;;14.82;9.35;;;17.60;99.90;;;;;;5031515;28;20344;-64
2023/03/18 11:01:28;;;;;;;14.90;9.70;;;17.60;99.90;;;;;;5034384;28;20033;-63
2023/03/18 11:04:00;;;;;;;19.60;9.15;;;17.50;99.90;;;;;;5027830;28;20052;-77
2023/03/18 11:06:35;;;;;;;15.00;8.73;;;17.60;99.90;;;;;;5032544;28;20356;-64
2023/03/18 11:09:07;;;;;;;14.48;8.73;;;17.80;99.90;;;;;;4965341;28;20431;-65
2023/03/18 11:11:34;;;;;;;14.98;7.60;;;17.90;99.90;;;;;;4933779;28;20047;-64
2023/03/18 11:14:03;;;;;;;;;;;17.70;99.90;;;;;;4932930;28;20025;-64
2023/03/18 11:16:44;;;;;;;13.52;6.05;;;17.50;99.90;;;;;;4934186;28;19919;-64
2023/03/18 11:19:38;;;;;;;8.93;4.85;;;17.40;99.90;;;;;;4931892;28;20033;-64
2023/03/18 11:22:16;;;;;;;12.18;7.00;;;17.20;99.90;;;;;;4932705;28;20033;-64
2023/03/18 11:24:42;;;;;;;11.32;7.13;;;17.10;99.90;;;;;;4932249;28;20100;-63
2023/03/18 11:27:32;;;;;;;12.63;6.40;;;17.00;99.90;;;;;;4933402;28;20048;-64
2023/03/18 11:30:01;;;;;;;9.57;5.72;;;16.90;99.90;;;;;;4930262;28;20029;-64
2023/03/18 11:32:30;;;;;;;10.90;6.80;;;16.90;99.90;;;;;;4932074;28;20053;-63
2023/03/18 11:35:01;;;;;;;12.32;6.68;;;16.80;99.90;;;;;;4934374;28;20350;-64
2023/03/18 11:37:35;;;;;;;10.18;6.88;;;16.80;99.90;;;;;;4934785;28;23827;-64
2023/03/18 11:40:13;;;;;;;13.77;7.03;;;16.60;99.90;;;;;;4934927;28;23285;-63
2023/03/18 11:42:40;;;;;;;12.77;6.07;;;16.50;99.90;;;;;;4937447;28;20036;-64
2023/03/18 11:45:25;;;;;;;11.25;6.80;;;16.50;99.90;;;;;;4935244;28;20044;-63
2023/03/18 11:47:52;;;;;;;9.38;6.10;;;16.40;99.90;;;;;;5011779;28;20071;-63
2023/03/18 11:50:24;;;;;;;15.40;7.30;;;16.40;99.90;;;;;;5026141;28;20048;-64
2023/03/18 11:53:16;;;;;;;12.73;7.55;;;16.30;99.90;;;;;;5030963;28;20034;-63
2023/03/18 11:55:58;;;;;;;10.38;6.53;;;16.20;99.90;;;;;;5029842;28;20035;-63
2023/03/18 11:58:42;;;;;;;14.30;7.30;;;16.00;99.90;;;;;;5019406;28;20041;-64
2023/03/18 12:01:22;;;;;;;11.95;7.60;;;15.90;99.90;;;;;;4986259;28;20841;-63
2023/03/18 12:04:11;;;;;;;13.82;7.88;;;15.90;99.90;;;;;;5004629;28;20065;-63
2023/03/18 12:06:43;;;;;;;16.27;7.80;;;15.80;99.90;;;;;;5026205;28;20045;-63
2023/03/18 12:09:37;;;;;;;14.35;8.85;;;15.90;99.90;;;;;;5021373;28;20029;-63
2023/03/18 12:12:37;;;;;;;15.43;8.60;;;16.00;99.90;;;;;;5016627;28;20022;-63
2023/03/18 12:15:14;;;;;;;15.07;7.60;;;16.20;99.90;;;;;;5022053;28;20084;-64
2023/03/18 12:17:45;;;;;;;16.52;8.07;;;16.40;99.90;;;;;;5026915;28;20037;-63
2023/03/18 12:20:39;;;;;;;13.55;7.75;;;16.50;99.90;;;;;;5027216;28;20320;-63
2023/03/18 12:23:13;;;;;;;13.80;7.10;;;16.70;99.90;;;;;;5028548;28;20478;-64
2023/03/18 12:26:14;;;;;;;12.63;7.45;;;16.70;99.90;;;;;;5033965;28;20033;-63
2023/03/18 12:29:06;;;;;;;13.60;6.30;;;16.60;99.90;;;;;;5029846;28;20060;-63
2023/03/18 12:32:06;;;;;;;12.85;5.88;;;16.60;99.90;;;;;;5028336;28;20116;-63
2023/03/18 12:34:41;;;;;;;9.45;5.78;;;16.60;99.90;;;;;;4934290;28;20883;-64
2023/03/18 12:37:30;;;;;;;12.13;6.07;;;16.40;99.90;;;;;;4935938;28;20034;-63
2023/03/18 12:40:18;;;;;;;11.60;6.03;;;16.40;99.90;;;;;;4938375;28;20807;-65
2023/03/18 12:43:26;;;;;;;14.85;6.50;;;16.30;99.90;;;;;;4934838;28;20789;-63
2023/03/18 12:46:02;;;;;;;8.32;5.28;;;16.20;99.90;;;;;;4928570;28;20041;-64
2023/03/18 12:48:45;;;;;;;11.35;6.03;;;16.00;99.90;;;;;;4932070;28;20451;-63
2023/03/18 12:51:24;;;;;;;11.02;5.65;;;15.80;99.90;;;;;;4932824;28;20037;-64